sensor_id;sensor_type;location;lat;lon;timestamp;P1;durP1;ratioP1;P2;durP2;ratioP2
20314;SDS011;10315;50.958;13.080;2022-12-05T00:04:45;402.13;;;56.53;;
20314;SDS011;10315;50.958;13.080;2022-12-05T00:14:46;325.53;;;45.70;;
20314;SDS011;10315;50.958;13.080;2022-12-05T00:24:49;488.43;;;57.70;;
20314;SDS011;10315;50.958;13.080;2022-12-05T00:34:51;386.83;;;50.80;;
20314;SDS011;10315;50.958;13.080;2022-12-05T00:44:54;268.43;;;44.03;;
20314;SDS011;10315;50.958;13.080;2022-12-05T00:54:56;336.33;;;45.50;;
20314;SDS011;10315;50.958;13.080;2022-12-05T01:04:59;370.57;;;48.73;;
20314;SDS011;10315;50.958;13.080;2022-12-05T01:15:01;313.37;;;49.00;;
20314;SDS011;10315;50.958;13.080;2022-12-05T01:25:05;366.37;;;48.23;;
20314;SDS011;10315;50.958;13.080;2022-12-05T01:35:08;368.77;;;50.00;;
20314;SDS011;10315;50.958;13.080;2022-12-05T01:45:15;297.70;;;44.40;;
20314;SDS011;10315;50.958;13.080;2022-12-05T01:55:18;242.50;;;40.47;;
20314;SDS011;10315;50.958;13.080;2022-12-05T02:05:26;255.73;;;40.47;;
20314;SDS011;10315;50.958;13.080;2022-12-05T02:15:34;288.00;;;42.83;;
20314;SDS011;10315;50.958;13.080;2022-12-05T02:25:53;265.30;;;41.60;;
20314;SDS011;10315;50.958;13.080;2022-12-05T02:36:15;122.90;;;35.00;;
20314;SDS011;10315;50.958;13.080;2022-12-05T02:46:23;104.60;;;31.97;;
20314;SDS011;10315;50.958;13.080;2022-12-05T02:56:29;99.40;;;32.53;;
20314;SDS011;10315;50.958;13.080;2022-12-05T03:06:35;99.63;;;32.53;;
20314;SDS011;10315;50.958;13.080;2022-12-05T03:16:43;190.00;;;39.27;;
20314;SDS011;10315;50.958;13.080;2022-12-05T03:26:49;109.63;;;34.70;;
20314;SDS011;10315;50.958;13.080;2022-12-05T03:36:58;115.50;;;34.37;;
20314;SDS011;10315;50.958;13.080;2022-12-05T03:47:05;102.60;;;33.27;;
20314;SDS011;10315;50.958;13.080;2022-12-05T03:57:18;110.17;;;33.10;;
20314;SDS011;10315;50.958;13.080;2022-12-05T04:07:23;97.77;;;31.40;;
20314;SDS011;10315;50.958;13.080;2022-12-05T04:17:29;87.40;;;31.00;;
20314;SDS011;10315;50.958;13.080;2022-12-05T04:27:47;85.57;;;30.33;;
20314;SDS011;10315;50.958;13.080;2022-12-05T04:37:59;60.00;;;23.20;;
20314;SDS011;10315;50.958;13.080;2022-12-05T04:48:06;58.53;;;23.70;;
20314;SDS011;10315;50.958;13.080;2022-12-05T04:58:14;54.73;;;21.37;;
20314;SDS011;10315;50.958;13.080;2022-12-05T05:08:20;46.90;;;17.60;;
20314;SDS011;10315;50.958;13.080;2022-12-05T05:18:25;48.40;;;20.73;;
20314;SDS011;10315;50.958;13.080;2022-12-05T05:28:27;43.13;;;18.47;;
20314;SDS011;10315;50.958;13.080;2022-12-05T05:38:30;40.47;;;17.97;;
20314;SDS011;10315;50.958;13.080;2022-12-05T05:48:36;62.77;;;22.43;;
20314;SDS011;10315;50.958;13.080;2022-12-05T05:58:39;93.80;;;31.27;;
20314;SDS011;10315;50.958;13.080;2022-12-05T06:08:42;273.70;;;42.67;;
20314;SDS011;10315;50.958;13.080;2022-12-05T06:18:46;335.07;;;42.07;;
20314;SDS011;10315;50.958;13.080;2022-12-05T06:28:48;299.63;;;40.87;;
20314;SDS011;10315;50.958;13.080;2022-12-05T06:38:51;275.77;;;39.60;;
20314;SDS011;10315;50.958;13.080;2022-12-05T06:48:53;329.20;;;42.97;;
20314;SDS011;10315;50.958;13.080;2022-12-05T06:58:57;234.63;;;41.03;;
20314;SDS011;10315;50.958;13.080;2022-12-05T07:08:58;170.67;;;32.97;;
20314;SDS011;10315;50.958;13.080;2022-12-05T07:19:02;288.97;;;42.10;;
20314;SDS011;10315;50.958;13.080;2022-12-05T07:29:03;234.77;;;38.70;;
20314;SDS011;10315;50.958;13.080;2022-12-05T07:39:06;187.30;;;34.47;;
20314;SDS011;10315;50.958;13.080;2022-12-05T07:49:09;156.30;;;39.33;;
20314;SDS011;10315;50.958;13.080;2022-12-05T07:59:12;119.53;;;33.87;;
20314;SDS011;10315;50.958;13.080;2022-12-05T08:09:14;106.17;;;32.27;;
20314;SDS011;10315;50.958;13.080;2022-12-05T08:19:17;99.10;;;31.13;;
20314;SDS011;10315;50.958;13.080;2022-12-05T08:29:20;96.40;;;31.17;;
20314;SDS011;10315;50.958;13.080;2022-12-05T08:39:23;83.90;;;28.27;;
20314;SDS011;10315;50.958;13.080;2022-12-05T08:49:26;84.30;;;30.10;;
20314;SDS011;10315;50.958;13.080;2022-12-05T08:59:29;81.03;;;27.03;;
20314;SDS011;10315;50.958;13.080;2022-12-05T09:09:31;72.03;;;26.23;;
20314;SDS011;10315;50.958;13.080;2022-12-05T09:19:49;61.73;;;23.37;;
20314;SDS011;10315;50.958;13.080;2022-12-05T09:29:51;59.30;;;24.20;;
20314;SDS011;10315;50.958;13.080;2022-12-05T09:39:54;52.40;;;23.63;;
20314;SDS011;10315;50.958;13.080;2022-12-05T09:49:56;36.20;;;15.60;;
20314;SDS011;10315;50.958;13.080;2022-12-05T10:00:04;21.90;;;9.70;;
20314;SDS011;10315;50.958;13.080;2022-12-05T10:10:14;19.87;;;9.20;;
20314;SDS011;10315;50.958;13.080;2022-12-05T10:20:27;18.40;;;7.93;;
20314;SDS011;10315;50.958;13.080;2022-12-05T10:30:32;14.17;;;8.03;;
20314;SDS011;10315;50.958;13.080;2022-12-05T10:40:37;49.77;;;17.87;;
20314;SDS011;10315;50.958;13.080;2022-12-05T10:50:40;46.43;;;18.97;;
20314;SDS011;10315;50.958;13.080;2022-12-05T11:00:46;14.60;;;7.93;;
20314;SDS011;10315;50.958;13.080;2022-12-05T11:10:57;27.83;;;13.00;;
20314;SDS011;10315;50.958;13.080;2022-12-05T11:21:09;12.63;;;7.40;;
20314;SDS011;10315;50.958;13.080;2022-12-05T11:31:18;35.40;;;15.20;;
20314;SDS011;10315;50.958;13.080;2022-12-05T11:41:40;10.33;;;6.03;;
20314;SDS011;10315;50.958;13.080;2022-12-05T11:52:20;14.37;;;6.93;;
20314;SDS011;10315;50.958;13.080;2022-12-05T12:13:29;23.53;;;11.33;;
20314;SDS011;10315;50.958;13.080;2022-12-05T12:23:43;25.40;;;12.33;;
20314;SDS011;10315;50.958;13.080;2022-12-05T12:33:57;26.77;;;13.07;;
20314;SDS011;10315;50.958;13.080;2022-12-05T12:44:31;24.10;;;10.83;;
20314;SDS011;10315;50.958;13.080;2022-12-05T12:54:54;29.60;;;13.43;;
20314;SDS011;10315;50.958;13.080;2022-12-05T13:05:15;33.60;;;13.43;;
20314;SDS011;10315;50.958;13.080;2022-12-05T13:15:43;27.23;;;12.13;;
20314;SDS011;10315;50.958;13.080;2022-12-05T13:25:46;23.73;;;11.00;;
20314;SDS011;10315;50.958;13.080;2022-12-05T13:35:53;21.47;;;11.50;;
20314;SDS011;10315;50.958;13.080;2022-12-05T13:46:17;28.00;;;10.90;;
20314;SDS011;10315;50.958;13.080;2022-12-05T13:56:26;26.80;;;12.07;;
20314;SDS011;10315;50.958;13.080;2022-12-05T14:06:54;28.60;;;12.93;;
20314;SDS011;10315;50.958;13.080;2022-12-05T14:17:06;27.23;;;13.60;;
20314;SDS011;10315;50.958;13.080;2022-12-05T14:27:12;34.17;;;14.13;;
20314;SDS011;10315;50.958;13.080;2022-12-05T14:37:24;30.87;;;13.47;;
20314;SDS011;10315;50.958;13.080;2022-12-05T14:47:37;25.67;;;11.37;;
20314;SDS011;10315;50.958;13.080;2022-12-05T14:57:49;22.97;;;12.13;;
20314;SDS011;10315;50.958;13.080;2022-12-05T15:07:51;25.33;;;11.00;;
20314;SDS011;10315;50.958;13.080;2022-12-05T15:17:57;29.40;;;14.10;;
20314;SDS011;10315;50.958;13.080;2022-12-05T15:28:05;25.50;;;12.43;;
20314;SDS011;10315;50.958;13.080;2022-12-05T15:38:20;30.57;;;12.90;;
20314;SDS011;10315;50.958;13.080;2022-12-05T15:48:25;32.23;;;14.90;;
20314;SDS011;10315;50.958;13.080;2022-12-05T15:58:29;31.77;;;12.60;;
20314;SDS011;10315;50.958;13.080;2022-12-05T16:08:34;30.70;;;13.03;;
20314;SDS011;10315;50.958;13.080;2022-12-05T16:18:46;28.20;;;12.60;;
20314;SDS011;10315;50.958;13.080;2022-12-05T16:28:57;32.90;;;14.40;;
20314;SDS011;10315;50.958;13.080;2022-12-05T16:39:01;28.90;;;14.30;;
20314;SDS011;10315;50.958;13.080;2022-12-05T16:49:14;28.77;;;13.00;;
20314;SDS011;10315;50.958;13.080;2022-12-05T17:09:48;25.43;;;11.93;;
20314;SDS011;10315;50.958;13.080;2022-12-05T17:19:51;22.03;;;10.80;;
20314;SDS011;10315;50.958;13.080;2022-12-05T17:29:53;22.00;;;10.40;;
20314;SDS011;10315;50.958;13.080;2022-12-05T17:39:56;25.37;;;11.30;;
20314;SDS011;10315;50.958;13.080;2022-12-05T17:50:00;25.43;;;11.57;;
20314;SDS011;10315;50.958;13.080;2022-12-05T18:00:04;27.23;;;10.60;;
20314;SDS011;10315;50.958;13.080;2022-12-05T18:10:07;22.20;;;9.67;;
20314;SDS011;10315;50.958;13.080;2022-12-05T18:20:13;32.60;;;18.23;;
20314;SDS011;10315;50.958;13.080;2022-12-05T18:30:15;23.70;;;10.60;;
20314;SDS011;10315;50.958;13.080;2022-12-05T18:50:35;11.87;;;6.20;;
20314;SDS011;10315;50.958;13.080;2022-12-05T19:00:38;10.67;;;6.50;;
20314;SDS011;10315;50.958;13.080;2022-12-05T19:10:40;9.67;;;5.00;;
20314;SDS011;10315;50.958;13.080;2022-12-05T19:20:49;13.80;;;8.23;;
20314;SDS011;10315;50.958;13.080;2022-12-05T19:30:57;20.93;;;11.67;;
20314;SDS011;10315;50.958;13.080;2022-12-05T19:41:04;15.40;;;7.97;;
20314;SDS011;10315;50.958;13.080;2022-12-05T19:51:06;12.93;;;8.20;;
20314;SDS011;10315;50.958;13.080;2022-12-05T20:01:10;23.97;;;14.10;;
20314;SDS011;10315;50.958;13.080;2022-12-05T20:11:16;9.17;;;5.57;;
20314;SDS011;10315;50.958;13.080;2022-12-05T20:21:20;8.57;;;5.57;;
20314;SDS011;10315;50.958;13.080;2022-12-05T20:31:23;10.57;;;6.43;;
20314;SDS011;10315;50.958;13.080;2022-12-05T20:41:28;14.73;;;8.33;;
20314;SDS011;10315;50.958;13.080;2022-12-05T20:51:31;14.07;;;6.17;;
20314;SDS011;10315;50.958;13.080;2022-12-05T21:01:35;9.23;;;5.00;;
20314;SDS011;10315;50.958;13.080;2022-12-05T21:11:37;11.80;;;6.63;;
20314;SDS011;10315;50.958;13.080;2022-12-05T21:21:40;8.83;;;5.30;;
20314;SDS011;10315;50.958;13.080;2022-12-05T21:31:42;7.53;;;4.47;;
20314;SDS011;10315;50.958;13.080;2022-12-05T21:41:45;6.80;;;4.33;;
20314;SDS011;10315;50.958;13.080;2022-12-05T21:51:47;13.37;;;6.90;;
20314;SDS011;10315;50.958;13.080;2022-12-05T22:01:50;7.93;;;4.60;;
20314;SDS011;10315;50.958;13.080;2022-12-05T22:11:52;8.53;;;4.97;;
20314;SDS011;10315;50.958;13.080;2022-12-05T22:21:55;8.90;;;4.90;;
20314;SDS011;10315;50.958;13.080;2022-12-05T22:31:57;8.63;;;4.73;;
20314;SDS011;10315;50.958;13.080;2022-12-05T22:42:00;9.53;;;5.40;;
20314;SDS011;10315;50.958;13.080;2022-12-05T22:52:02;9.40;;;5.73;;
20314;SDS011;10315;50.958;13.080;2022-12-05T23:02:05;8.27;;;5.00;;
20314;SDS011;10315;50.958;13.080;2022-12-05T23:12:07;9.03;;;4.90;;
20314;SDS011;10315;50.958;13.080;2022-12-05T23:22:10;12.43;;;6.07;;
20314;SDS011;10315;50.958;13.080;2022-12-05T23:32:12;12.03;;;6.40;;
20314;SDS011;10315;50.958;13.080;2022-12-05T23:42:15;9.07;;;5.50;;
20314;SDS011;10315;50.958;13.080;2022-12-05T23:52:17;9.73;;;5.50;;
